Terminal Aerodrome Forecast
Issued by NWS

Current Version | Previous Version | Text Only | Print | Product List | Glossary Off
Versions: 1 2 3 4 5 6 7 8 9 10 11 12 13 14 15 16 17 18 19 20 21 22

000
FTUS41 KPBZ 191000 AAB
TAFMGW
TAF AMD
KMGW 191038Z 1911/2006 VRB03KT P6SM -SHRA OVC035
      TEMPO 1912/1914 5SM -SHRA BR
     FM191700 16008KT 6SM -SHRA BR OVC035
     FM192100 17005KT P6SM VCSH BKN040=

USA.gov is the U.S. government's official web portal to all federal, state and local government web resources and services.